sensor_id;sensor_type;location;lat;lon;timestamp;pressure;altitude;pressure_sealevel;temperature;humidity
10638;BME280;47007;49.252;8.904;2022-10-16T00:01:19;99556.28;;;16.98;100.00
10638;BME280;47007;49.252;8.904;2022-10-16T00:03:47;99550.84;;;16.93;100.00
10638;BME280;47007;49.252;8.904;2022-10-16T00:06:16;99555.47;;;16.85;100.00
10638;BME280;47007;49.252;8.904;2022-10-16T00:08:43;99552.78;;;16.85;100.00
10638;BME280;47007;49.252;8.904;2022-10-16T00:11:16;99554.66;;;16.85;100.00
10638;BME280;47007;49.252;8.904;2022-10-16T00:13:44;99550.69;;;16.87;100.00
10638;BME280;47007;49.252;8.904;2022-10-16T00:16:12;99566.31;;;16.91;100.00
10638;BME280;47007;49.252;8.904;2022-10-16T00:18:40;99566.31;;;16.91;100.00
10638;BME280;47007;49.252;8.904;2022-10-16T00:21:22;99569.09;;;16.96;100.00
10638;BME280;47007;49.252;8.904;2022-10-16T00:24:08;99568.78;;;17.04;100.00
10638;BME280;47007;49.252;8.904;2022-10-16T00:26:37;99574.22;;;17.09;100.00
10638;BME280;47007;49.252;8.904;2022-10-16T00:29:05;99568.63;;;16.99;100.00
10638;BME280;47007;49.252;8.904;2022-10-16T00:31:32;99577.03;;;17.02;100.00
10638;BME280;47007;49.252;8.904;2022-10-16T00:33:59;99562.22;;;16.88;100.00
10638;BME280;47007;49.252;8.904;2022-10-16T00:36:26;99563.84;;;16.89;100.00
10638;BME280;47007;49.252;8.904;2022-10-16T00:38:56;99577.34;;;16.94;100.00
10638;BME280;47007;49.252;8.904;2022-10-16T00:41:24;99573.16;;;16.86;100.00
10638;BME280;47007;49.252;8.904;2022-10-16T00:43:55;99565.50;;;16.90;100.00
10638;BME280;47007;49.252;8.904;2022-10-16T00:49:11;99552.47;;;16.94;100.00
10638;BME280;47007;49.252;8.904;2022-10-16T00:51:43;99547.44;;;16.85;100.00
10638;BME280;47007;49.252;8.904;2022-10-16T00:54:15;99540.78;;;16.76;100.00
10638;BME280;47007;49.252;8.904;2022-10-16T00:56:44;99561.78;;;16.91;100.00
10638;BME280;47007;49.252;8.904;2022-10-16T00:59:22;99563.41;;;16.92;100.00
10638;BME280;47007;49.252;8.904;2022-10-16T01:01:52;99564.44;;;16.91;100.00
10638;BME280;47007;49.252;8.904;2022-10-16T01:04:20;99559.06;;;16.79;100.00
10638;BME280;47007;49.252;8.904;2022-10-16T01:06:58;99553.34;;;16.76;100.00
10638;BME280;47007;49.252;8.904;2022-10-16T01:12:29;99576.00;;;17.03;100.00
10638;BME280;47007;49.252;8.904;2022-10-16T01:17:44;99569.47;;;17.11;100.00
10638;BME280;47007;49.252;8.904;2022-10-16T01:20:32;99580.53;;;17.03;100.00
10638;BME280;47007;49.252;8.904;2022-10-16T01:23:21;99592.63;;;16.94;100.00
10638;BME280;47007;49.252;8.904;2022-10-16T01:25:59;99591.22;;;16.91;100.00
10638;BME280;47007;49.252;8.904;2022-10-16T01:28:38;99576.19;;;16.78;100.00
10638;BME280;47007;49.252;8.904;2022-10-16T01:31:07;99590.50;;;16.96;100.00
10638;BME280;47007;49.252;8.904;2022-10-16T01:33:40;99572.56;;;16.84;100.00
10638;BME280;47007;49.252;8.904;2022-10-16T01:36:30;99602.41;;;17.00;100.00
10638;BME280;47007;49.252;8.904;2022-10-16T01:39:01;99598.22;;;16.92;100.00
10638;BME280;47007;49.252;8.904;2022-10-16T01:41:33;99590.84;;;16.87;100.00
10638;BME280;47007;49.252;8.904;2022-10-16T01:46:39;99606.97;;;17.11;100.00
10638;BME280;47007;49.252;8.904;2022-10-16T01:49:09;99594.84;;;17.08;100.00
10638;BME280;47007;49.252;8.904;2022-10-16T01:51:37;99588.66;;;17.08;100.00
10638;BME280;47007;49.252;8.904;2022-10-16T01:54:05;99590.91;;;17.11;100.00
10638;BME280;47007;49.252;8.904;2022-10-16T01:56:34;99565.97;;;16.99;100.00
10638;BME280;47007;49.252;8.904;2022-10-16T01:59:06;99571.53;;;16.97;100.00
10638;BME280;47007;49.252;8.904;2022-10-16T02:01:38;99591.69;;;17.00;100.00
10638;BME280;47007;49.252;8.904;2022-10-16T02:04:15;99581.09;;;16.93;100.00
10638;BME280;47007;49.252;8.904;2022-10-16T02:06:43;99563.94;;;16.82;100.00
10638;BME280;47007;49.252;8.904;2022-10-16T02:09:10;99592.88;;;17.04;100.00
10638;BME280;47007;49.252;8.904;2022-10-16T02:11:37;99583.66;;;17.00;100.00
10638;BME280;47007;49.252;8.904;2022-10-16T02:14:06;99585.38;;;16.94;100.00
10638;BME280;47007;49.252;8.904;2022-10-16T02:16:36;99591.69;;;17.00;100.00
10638;BME280;47007;49.252;8.904;2022-10-16T02:19:04;99585.53;;;16.99;100.00
10638;BME280;47007;49.252;8.904;2022-10-16T02:21:40;99588.56;;;17.03;100.00
10638;BME280;47007;49.252;8.904;2022-10-16T02:27:10;99596.81;;;17.01;100.00
10638;BME280;47007;49.252;8.904;2022-10-16T02:29:52;99578.66;;;16.92;100.00
10638;BME280;47007;49.252;8.904;2022-10-16T02:32:23;99595.31;;;17.05;100.00
10638;BME280;47007;49.252;8.904;2022-10-16T02:34:51;99598.56;;;17.07;100.00
10638;BME280;47007;49.252;8.904;2022-10-16T02:37:19;99598.56;;;17.07;100.00
10638;BME280;47007;49.252;8.904;2022-10-16T02:39:45;99599.59;;;17.06;100.00
10638;BME280;47007;49.252;8.904;2022-10-16T02:42:13;99594.38;;;17.00;100.00
10638;BME280;47007;49.252;8.904;2022-10-16T02:44:40;99575.34;;;16.78;100.00
10638;BME280;47007;49.252;8.904;2022-10-16T02:47:07;99598.53;;;16.96;100.00
10638;BME280;47007;49.252;8.904;2022-10-16T02:49:34;99574.66;;;16.82;100.00
10638;BME280;47007;49.252;8.904;2022-10-16T02:52:01;99580.75;;;16.90;100.00
10638;BME280;47007;49.252;8.904;2022-10-16T02:54:28;99594.72;;;16.92;100.00
10638;BME280;47007;49.252;8.904;2022-10-16T02:56:54;99583.03;;;16.74;100.00
10638;BME280;47007;49.252;8.904;2022-10-16T02:59:21;99590.97;;;16.81;100.00
10638;BME280;47007;49.252;8.904;2022-10-16T03:01:48;99602.16;;;16.90;100.00
10638;BME280;47007;49.252;8.904;2022-10-16T03:04:14;99612.03;;;16.89;100.00
10638;BME280;47007;49.252;8.904;2022-10-16T03:06:41;99585.25;;;16.77;100.00
10638;BME280;47007;49.252;8.904;2022-10-16T03:09:08;99601.78;;;16.86;100.00
10638;BME280;47007;49.252;8.904;2022-10-16T03:11:35;99609.97;;;16.91;100.00
10638;BME280;47007;49.252;8.904;2022-10-16T03:14:01;99621.19;;;16.81;100.00
10638;BME280;47007;49.252;8.904;2022-10-16T03:16:28;99620.50;;;16.74;100.00
10638;BME280;47007;49.252;8.904;2022-10-16T03:18:55;99616.31;;;16.78;100.00
10638;BME280;47007;49.252;8.904;2022-10-16T03:21:21;99610.38;;;16.76;100.00
10638;BME280;47007;49.252;8.904;2022-10-16T03:23:48;99610.25;;;16.71;100.00
10638;BME280;47007;49.252;8.904;2022-10-16T03:26:15;99633.09;;;16.85;100.00
10638;BME280;47007;49.252;8.904;2022-10-16T03:28:41;99627.16;;;16.83;100.00
10638;BME280;47007;49.252;8.904;2022-10-16T03:31:08;99620.88;;;16.78;100.00
10638;BME280;47007;49.252;8.904;2022-10-16T03:33:35;99622.84;;;16.82;100.00
10638;BME280;47007;49.252;8.904;2022-10-16T03:36:02;99624.25;;;16.85;100.00
10638;BME280;47007;49.252;8.904;2022-10-16T03:38:28;99601.53;;;16.76;100.00
10638;BME280;47007;49.252;8.904;2022-10-16T03:40:55;99622.53;;;16.91;100.00
10638;BME280;47007;49.252;8.904;2022-10-16T03:43:22;99622.63;;;16.96;100.00
10638;BME280;47007;49.252;8.904;2022-10-16T03:45:50;99590.22;;;16.74;100.00
10638;BME280;47007;49.252;8.904;2022-10-16T03:48:18;99617.06;;;16.97;100.00
10638;BME280;47007;49.252;8.904;2022-10-16T03:50:45;99613.13;;;17.00;100.00
10638;BME280;47007;49.252;8.904;2022-10-16T03:53:14;99613.56;;;16.97;100.00
10638;BME280;47007;49.252;8.904;2022-10-16T03:55:42;99612.88;;;17.01;100.00
10638;BME280;47007;49.252;8.904;2022-10-16T03:58:09;99619.75;;;16.97;100.00
10638;BME280;47007;49.252;8.904;2022-10-16T04:00:35;99611.59;;;16.92;100.00
10638;BME280;47007;49.252;8.904;2022-10-16T04:03:02;99609.75;;;16.93;100.00
10638;BME280;47007;49.252;8.904;2022-10-16T04:05:29;99617.47;;;16.82;100.00
10638;BME280;47007;49.252;8.904;2022-10-16T04:07:56;99623.31;;;16.79;100.00
10638;BME280;47007;49.252;8.904;2022-10-16T04:10:22;99614.47;;;16.79;100.00
10638;BME280;47007;49.252;8.904;2022-10-16T04:12:49;99614.31;;;16.74;100.00
10638;BME280;47007;49.252;8.904;2022-10-16T04:15:16;99627.25;;;16.77;100.00
10638;BME280;47007;49.252;8.904;2022-10-16T04:17:43;99628.66;;;16.61;100.00
10638;BME280;47007;49.252;8.904;2022-10-16T04:20:10;99627.75;;;16.56;100.00
10638;BME280;47007;49.252;8.904;2022-10-16T04:22:36;99638.78;;;16.59;100.00
10638;BME280;47007;49.252;8.904;2022-10-16T04:25:04;99638.16;;;16.64;100.00
10638;BME280;47007;49.252;8.904;2022-10-16T04:27:31;99632.06;;;16.57;100.00
10638;BME280;47007;49.252;8.904;2022-10-16T04:29:59;99640.72;;;16.70;100.00
10638;BME280;47007;49.252;8.904;2022-10-16T04:32:26;99647.09;;;16.69;100.00
10638;BME280;47007;49.252;8.904;2022-10-16T04:34:53;99640.16;;;16.68;100.00
10638;BME280;47007;49.252;8.904;2022-10-16T04:37:23;99647.63;;;16.60;100.00
10638;BME280;47007;49.252;8.904;2022-10-16T04:39:53;99618.91;;;16.37;100.00
10638;BME280;47007;49.252;8.904;2022-10-16T04:42:20;99655.66;;;16.60;100.00
10638;BME280;47007;49.252;8.904;2022-10-16T04:44:47;99661.09;;;16.53;100.00
10638;BME280;47007;49.252;8.904;2022-10-16T04:47:14;99666.91;;;16.50;100.00
10638;BME280;47007;49.252;8.904;2022-10-16T04:49:41;99661.56;;;16.50;100.00
10638;BME280;47007;49.252;8.904;2022-10-16T04:52:08;99672.97;;;16.57;100.00
10638;BME280;47007;49.252;8.904;2022-10-16T04:54:36;99670.06;;;16.59;100.00
10638;BME280;47007;49.252;8.904;2022-10-16T04:57:02;99667.63;;;16.57;100.00
10638;BME280;47007;49.252;8.904;2022-10-16T04:59:31;99667.19;;;16.60;100.00
10638;BME280;47007;49.252;8.904;2022-10-16T05:01:57;99653.69;;;16.55;100.00
10638;BME280;47007;49.252;8.904;2022-10-16T05:04:24;99661.00;;;16.60;100.00
10638;BME280;47007;49.252;8.904;2022-10-16T05:06:51;99638.00;;;16.40;100.00
10638;BME280;47007;49.252;8.904;2022-10-16T05:09:18;99662.44;;;16.62;100.00
10638;BME280;47007;49.252;8.904;2022-10-16T05:11:44;99664.16;;;16.57;100.00
10638;BME280;47007;49.252;8.904;2022-10-16T05:14:11;99666.75;;;16.45;100.00
10638;BME280;47007;49.252;8.904;2022-10-16T05:16:38;99637.19;;;16.22;100.00
10638;BME280;47007;49.252;8.904;2022-10-16T05:19:04;99661.34;;;16.33;100.00
10638;BME280;47007;49.252;8.904;2022-10-16T05:21:51;99667.06;;;16.37;100.00
10638;BME280;47007;49.252;8.904;2022-10-16T05:24:18;99661.50;;;16.38;100.00
10638;BME280;47007;49.252;8.904;2022-10-16T05:26:44;99655.22;;;16.44;100.00
10638;BME280;47007;49.252;8.904;2022-10-16T05:29:11;99665.72;;;16.46;100.00
10638;BME280;47007;49.252;8.904;2022-10-16T05:31:38;99672.34;;;16.43;100.00
10638;BME280;47007;49.252;8.904;2022-10-16T05:34:05;99650.66;;;16.15;100.00
10638;BME280;47007;49.252;8.904;2022-10-16T05:36:31;99672.34;;;16.25;100.00
10638;BME280;47007;49.252;8.904;2022-10-16T05:38:58;99660.31;;;16.16;100.00
10638;BME280;47007;49.252;8.904;2022-10-16T05:41:25;99678.34;;;16.21;100.00
10638;BME280;47007;49.252;8.904;2022-10-16T05:43:52;99690.25;;;16.25;100.00
10638;BME280;47007;49.252;8.904;2022-10-16T05:46:19;99683.13;;;16.19;100.00
10638;BME280;47007;49.252;8.904;2022-10-16T05:48:46;99688.78;;;16.29;100.00
10638;BME280;47007;49.252;8.904;2022-10-16T05:51:14;99656.22;;;16.13;100.00
10638;BME280;47007;49.252;8.904;2022-10-16T05:53:41;99689.06;;;16.39;100.00
10638;BME280;47007;49.252;8.904;2022-10-16T05:56:10;99695.66;;;16.36;100.00
10638;BME280;47007;49.252;8.904;2022-10-16T05:58:38;99697.81;;;16.46;100.00
10638;BME280;47007;49.252;8.904;2022-10-16T06:01:10;99699.31;;;16.42;100.00
10638;BME280;47007;49.252;8.904;2022-10-16T06:03:37;99709.81;;;16.43;100.00
10638;BME280;47007;49.252;8.904;2022-10-16T06:06:11;99693.50;;;16.45;100.00
10638;BME280;47007;49.252;8.904;2022-10-16T06:08:39;99702.34;;;16.45;100.00
10638;BME280;47007;49.252;8.904;2022-10-16T06:11:10;99701.09;;;16.48;100.00
10638;BME280;47007;49.252;8.904;2022-10-16T06:13:38;99704.19;;;16.45;100.00
10638;BME280;47007;49.252;8.904;2022-10-16T06:16:06;99708.06;;;16.49;100.00
10638;BME280;47007;49.252;8.904;2022-10-16T06:18:33;99696.78;;;16.47;100.00
10638;BME280;47007;49.252;8.904;2022-10-16T06:20:59;99679.47;;;16.49;100.00
10638;BME280;47007;49.252;8.904;2022-10-16T06:23:33;99684.31;;;16.41;100.00
10638;BME280;47007;49.252;8.904;2022-10-16T06:26:07;99707.19;;;16.37;100.00
10638;BME280;47007;49.252;8.904;2022-10-16T06:28:34;99681.03;;;16.21;100.00
10638;BME280;47007;49.252;8.904;2022-10-16T06:31:02;99699.25;;;16.30;100.00
10638;BME280;47007;49.252;8.904;2022-10-16T06:33:35;99715.75;;;16.27;100.00
10638;BME280;47007;49.252;8.904;2022-10-16T06:36:06;99735.13;;;16.23;100.00
10638;BME280;47007;49.252;8.904;2022-10-16T06:38:35;99735.72;;;16.25;100.00
10638;BME280;47007;49.252;8.904;2022-10-16T06:41:02;99733.41;;;16.28;100.00
10638;BME280;47007;49.252;8.904;2022-10-16T06:43:30;99722.84;;;16.33;100.00
10638;BME280;47007;49.252;8.904;2022-10-16T06:46:02;99730.88;;;16.33;100.00
10638;BME280;47007;49.252;8.904;2022-10-16T06:48:30;99726.34;;;16.34;100.00
10638;BME280;47007;49.252;8.904;2022-10-16T06:51:12;99732.25;;;16.42;100.00
10638;BME280;47007;49.252;8.904;2022-10-16T06:53:51;99727.94;;;16.41;100.00
10638;BME280;47007;49.252;8.904;2022-10-16T06:56:33;99716.56;;;16.28;100.00
10638;BME280;47007;49.252;8.904;2022-10-16T06:59:01;99721.31;;;16.26;100.00
10638;BME280;47007;49.252;8.904;2022-10-16T07:01:28;99716.94;;;16.31;100.00
10638;BME280;47007;49.252;8.904;2022-10-16T07:03:55;99744.19;;;16.58;100.00
10638;BME280;47007;49.252;8.904;2022-10-16T07:06:23;99737.16;;;16.64;100.00
10638;BME280;47007;49.252;8.904;2022-10-16T07:08:51;99734.38;;;16.52;100.00
10638;BME280;47007;49.252;8.904;2022-10-16T07:11:20;99745.53;;;16.49;100.00
10638;BME280;47007;49.252;8.904;2022-10-16T07:13:48;99752.34;;;16.45;100.00
10638;BME280;47007;49.252;8.904;2022-10-16T07:16:23;99757.06;;;16.49;100.00
10638;BME280;47007;49.252;8.904;2022-10-16T07:18:50;99764.66;;;16.71;100.00
10638;BME280;47007;49.252;8.904;2022-10-16T07:21:21;99769.78;;;16.91;100.00
10638;BME280;47007;49.252;8.904;2022-10-16T07:23:58;99758.53;;;17.00;100.00
10638;BME280;47007;49.252;8.904;2022-10-16T07:26:26;99756.25;;;17.15;100.00
10638;BME280;47007;49.252;8.904;2022-10-16T07:28:53;99769.25;;;17.30;100.00
10638;BME280;47007;49.252;8.904;2022-10-16T07:31:21;99758.78;;;17.40;100.00
10638;BME280;47007;49.252;8.904;2022-10-16T07:33:48;99759.19;;;17.55;100.00
10638;BME280;47007;49.252;8.904;2022-10-16T07:36:16;99747.03;;;17.41;100.00
10638;BME280;47007;49.252;8.904;2022-10-16T07:38:44;99763.19;;;17.65;100.00
10638;BME280;47007;49.252;8.904;2022-10-16T07:41:13;99774.16;;;17.86;100.00
10638;BME280;47007;49.252;8.904;2022-10-16T07:43:45;99753.53;;;17.87;100.00
10638;BME280;47007;49.252;8.904;2022-10-16T07:46:12;99765.53;;;17.96;100.00
10638;BME280;47007;49.252;8.904;2022-10-16T07:48:39;99750.25;;;17.85;100.00
10638;BME280;47007;49.252;8.904;2022-10-16T07:51:06;99772.91;;;18.12;100.00
10638;BME280;47007;49.252;8.904;2022-10-16T07:53:33;99783.84;;;18.22;100.00
10638;BME280;47007;49.252;8.904;2022-10-16T07:56:03;99774.53;;;18.13;100.00
10638;BME280;47007;49.252;8.904;2022-10-16T07:58:30;99774.63;;;18.18;100.00
10638;BME280;47007;49.252;8.904;2022-10-16T08:00:57;99770.91;;;18.19;100.00
10638;BME280;47007;49.252;8.904;2022-10-16T08:03:25;99773.94;;;18.23;100.00
10638;BME280;47007;49.252;8.904;2022-10-16T08:05:52;99799.94;;;18.46;100.00
10638;BME280;47007;49.252;8.904;2022-10-16T08:08:19;99766.47;;;18.37;100.00
10638;BME280;47007;49.252;8.904;2022-10-16T08:10:46;99788.97;;;18.59;100.00
10638;BME280;47007;49.252;8.904;2022-10-16T08:13:13;99801.09;;;18.73;100.00
10638;BME280;47007;49.252;8.904;2022-10-16T08:15:43;99785.94;;;18.67;100.00
10638;BME280;47007;49.252;8.904;2022-10-16T08:18:11;99792.00;;;18.51;100.00
10638;BME280;47007;49.252;8.904;2022-10-16T08:20:39;99796.09;;;18.65;100.00
10638;BME280;47007;49.252;8.904;2022-10-16T08:23:06;99796.88;;;18.89;100.00
10638;BME280;47007;49.252;8.904;2022-10-16T08:25:37;99769.31;;;18.82;100.00
10638;BME280;47007;49.252;8.904;2022-10-16T08:28:05;99789.53;;;19.13;100.00
10638;BME280;47007;49.252;8.904;2022-10-16T08:30:32;99791.81;;;19.61;100.00
10638;BME280;47007;49.252;8.904;2022-10-16T08:33:01;99787.31;;;19.83;100.00
10638;BME280;47007;49.252;8.904;2022-10-16T08:35:27;99774.03;;;19.93;100.00
10638;BME280;47007;49.252;8.904;2022-10-16T08:37:54;99765.56;;;19.85;100.00
10638;BME280;47007;49.252;8.904;2022-10-16T08:40:24;99771.81;;;20.07;100.00
10638;BME280;47007;49.252;8.904;2022-10-16T08:48:45;99780.16;;;20.05;100.00
10638;BME280;47007;49.252;8.904;2022-10-16T08:51:33;99779.59;;;19.87;100.00
10638;BME280;47007;49.252;8.904;2022-10-16T08:54:57;99750.56;;;19.55;100.00
10638;BME280;47007;49.252;8.904;2022-10-16T08:57:17;99772.44;;;19.76;100.00
10638;BME280;47007;49.252;8.904;2022-10-16T08:59:50;99768.81;;;20.03;100.00
10638;BME280;47007;49.252;8.904;2022-10-16T09:05:21;99773.72;;;20.62;100.00
10638;BME280;47007;49.252;8.904;2022-10-16T09:08:03;99778.41;;;20.93;100.00
10638;BME280;47007;49.252;8.904;2022-10-16T09:13:19;99726.13;;;20.29;100.00
10638;BME280;47007;49.252;8.904;2022-10-16T09:15:55;99785.22;;;20.57;100.00
10638;BME280;47007;49.252;8.904;2022-10-16T09:18:45;99774.50;;;20.40;100.00
10638;BME280;47007;49.252;8.904;2022-10-16T09:23:47;99829.59;;;20.71;100.00
10638;BME280;47007;49.252;8.904;2022-10-16T09:26:16;99826.00;;;20.66;100.00
10638;BME280;47007;49.252;8.904;2022-10-16T09:28:43;99830.56;;;20.65;100.00
10638;BME280;47007;49.252;8.904;2022-10-16T09:31:19;99826.91;;;20.55;100.00
10638;BME280;47007;49.252;8.904;2022-10-16T09:33:50;99823.59;;;20.48;100.00
10638;BME280;47007;49.252;8.904;2022-10-16T09:36:20;99805.00;;;20.46;100.00
10638;BME280;47007;49.252;8.904;2022-10-16T09:38:47;99830.06;;;20.68;100.00
10638;BME280;47007;49.252;8.904;2022-10-16T09:41:21;99835.88;;;20.77;100.00
10638;BME280;47007;49.252;8.904;2022-10-16T09:43:59;99807.22;;;20.71;100.00
10638;BME280;47007;49.252;8.904;2022-10-16T09:46:32;99838.25;;;20.95;100.00
10638;BME280;47007;49.252;8.904;2022-10-16T09:49:01;99852.72;;;20.89;100.00
10638;BME280;47007;49.252;8.904;2022-10-16T09:51:30;99846.66;;;20.99;100.00
10638;BME280;47007;49.252;8.904;2022-10-16T09:54:02;99864.88;;;22.11;100.00
10638;BME280;47007;49.252;8.904;2022-10-16T09:56:39;99866.19;;;22.82;100.00
10638;BME280;47007;49.252;8.904;2022-10-16T09:59:17;99877.13;;;23.13;100.00
10638;BME280;47007;49.252;8.904;2022-10-16T10:01:47;99876.34;;;23.17;100.00
10638;BME280;47007;49.252;8.904;2022-10-16T10:04:14;99882.47;;;23.65;100.00
10638;BME280;47007;49.252;8.904;2022-10-16T10:06:57;99878.69;;;23.66;100.00
10638;BME280;47007;49.252;8.904;2022-10-16T10:09:26;99896.88;;;23.81;100.00
10638;BME280;47007;49.252;8.904;2022-10-16T10:12:00;99888.88;;;23.34;100.00
10638;BME280;47007;49.252;8.904;2022-10-16T10:14:35;99884.00;;;23.36;100.00
10638;BME280;47007;49.252;8.904;2022-10-16T10:19:40;99888.34;;;23.37;100.00
10638;BME280;47007;49.252;8.904;2022-10-16T10:22:21;99892.69;;;23.48;100.00
10638;BME280;47007;49.252;8.904;2022-10-16T10:27:32;99870.78;;;22.82;100.00
10638;BME280;47007;49.252;8.904;2022-10-16T10:30:14;99895.47;;;22.96;100.00
10638;BME280;47007;49.252;8.904;2022-10-16T10:38:23;99885.25;;;23.13;100.00
10638;BME280;47007;49.252;8.904;2022-10-16T10:46:34;99899.34;;;24.63;100.00
10638;BME280;47007;49.252;8.904;2022-10-16T10:54:51;99852.19;;;25.39;100.00
10638;BME280;47007;49.252;8.904;2022-10-16T10:57:32;99908.06;;;25.94;100.00
10638;BME280;47007;49.252;8.904;2022-10-16T11:00:20;99897.53;;;26.22;100.00
10638;BME280;47007;49.252;8.904;2022-10-16T11:02:54;99900.78;;;26.29;100.00
10638;BME280;47007;49.252;8.904;2022-10-16T11:08:17;99897.25;;;26.23;100.00
10638;BME280;47007;49.252;8.904;2022-10-16T11:13:51;99891.09;;;26.12;100.00
10638;BME280;47007;49.252;8.904;2022-10-16T11:16:30;99898.41;;;25.78;100.00
10638;BME280;47007;49.252;8.904;2022-10-16T11:22:12;99888.34;;;25.84;100.00
10638;BME280;47007;49.252;8.904;2022-10-16T11:24:55;99907.44;;;25.68;100.00
10638;BME280;47007;49.252;8.904;2022-10-16T11:27:40;99906.00;;;25.81;100.00
10638;BME280;47007;49.252;8.904;2022-10-16T11:40:50;99900.84;;;25.80;100.00
10638;BME280;47007;49.252;8.904;2022-10-16T11:43:27;99894.94;;;25.67;100.00
10638;BME280;47007;49.252;8.904;2022-10-16T11:45:58;99912.91;;;25.97;100.00
10638;BME280;47007;49.252;8.904;2022-10-16T11:48:51;99910.84;;;25.84;100.00
10638;BME280;47007;49.252;8.904;2022-10-16T11:54:18;99894.75;;;24.08;100.00
10638;BME280;47007;49.252;8.904;2022-10-16T11:56:50;99889.84;;;24.00;100.00
10638;BME280;47007;49.252;8.904;2022-10-16T11:59:55;99898.00;;;24.51;100.00
10638;BME280;47007;49.252;8.904;2022-10-16T12:02:48;99903.13;;;24.67;100.00
10638;BME280;47007;49.252;8.904;2022-10-16T12:05:35;99906.41;;;24.59;100.00
10638;BME280;47007;49.252;8.904;2022-10-16T12:08:10;99896.09;;;24.51;100.00
10638;BME280;47007;49.252;8.904;2022-10-16T12:10:39;99892.84;;;24.19;100.00
10638;BME280;47007;49.252;8.904;2022-10-16T12:18:44;99901.19;;;24.73;100.00
10638;BME280;47007;49.252;8.904;2022-10-16T12:21:13;99889.06;;;24.25;100.00
10638;BME280;47007;49.252;8.904;2022-10-16T12:23:53;99896.38;;;24.09;100.00
10638;BME280;47007;49.252;8.904;2022-10-16T12:26:29;99881.19;;;24.13;100.00
10638;BME280;47007;49.252;8.904;2022-10-16T12:31:49;99903.66;;;24.19;100.00
10638;BME280;47007;49.252;8.904;2022-10-16T12:34:29;99901.75;;;23.99;100.00
10638;BME280;47007;49.252;8.904;2022-10-16T12:37:30;99901.22;;;23.92;100.00
10638;BME280;47007;49.252;8.904;2022-10-16T12:39:55;99908.22;;;23.73;100.00
10638;BME280;47007;49.252;8.904;2022-10-16T12:42:32;99893.88;;;23.72;100.00
10638;BME280;47007;49.252;8.904;2022-10-16T12:45:00;99884.22;;;24.32;100.00
10638;BME280;47007;49.252;8.904;2022-10-16T12:49:58;99873.66;;;24.36;100.00
10638;BME280;47007;49.252;8.904;2022-10-16T12:52:37;99886.06;;;24.06;100.00
10638;BME280;47007;49.252;8.904;2022-10-16T12:55:09;99900.09;;;23.78;100.00
10638;BME280;47007;49.252;8.904;2022-10-16T12:57:57;99897.00;;;23.44;100.00
10638;BME280;47007;49.252;8.904;2022-10-16T13:00:56;99896.88;;;23.13;100.00
10638;BME280;47007;49.252;8.904;2022-10-16T13:11:26;99879.78;;;22.98;100.00
10638;BME280;47007;49.252;8.904;2022-10-16T13:22:24;99894.00;;;22.78;100.00
10638;BME280;47007;49.252;8.904;2022-10-16T13:25:19;99898.53;;;22.72;100.00
10638;BME280;47007;49.252;8.904;2022-10-16T13:27:54;99900.97;;;22.74;100.00
10638;BME280;47007;49.252;8.904;2022-10-16T13:30:24;99901.44;;;22.66;100.00
10638;BME280;47007;49.252;8.904;2022-10-16T13:33:10;99879.09;;;22.38;100.00
10638;BME280;47007;49.252;8.904;2022-10-16T13:35:53;99909.94;;;22.42;100.00
10638;BME280;47007;49.252;8.904;2022-10-16T13:38:22;99913.41;;;22.38;100.00
10638;BME280;47007;49.252;8.904;2022-10-16T13:46:16;99899.78;;;22.23;100.00
10638;BME280;47007;49.252;8.904;2022-10-16T13:48:41;99885.34;;;22.07;100.00
10638;BME280;47007;49.252;8.904;2022-10-16T13:51:18;99889.41;;;22.09;100.00
10638;BME280;47007;49.252;8.904;2022-10-16T13:53:45;99887.72;;;22.03;100.00
10638;BME280;47007;49.252;8.904;2022-10-16T13:56:16;99865.19;;;21.88;100.00
10638;BME280;47007;49.252;8.904;2022-10-16T13:58:43;99872.75;;;21.91;100.00
10638;BME280;47007;49.252;8.904;2022-10-16T14:01:23;99857.59;;;21.84;100.00
10638;BME280;47007;49.252;8.904;2022-10-16T14:04:02;99878.38;;;22.11;100.00
10638;BME280;47007;49.252;8.904;2022-10-16T14:06:31;99880.28;;;22.15;100.00
10638;BME280;47007;49.252;8.904;2022-10-16T14:11:54;99890.25;;;22.15;100.00
10638;BME280;47007;49.252;8.904;2022-10-16T14:14:22;99879.19;;;22.11;100.00
10638;BME280;47007;49.252;8.904;2022-10-16T14:16:49;99856.03;;;21.94;100.00
10638;BME280;47007;49.252;8.904;2022-10-16T14:21:43;99868.78;;;21.98;100.00
10638;BME280;47007;49.252;8.904;2022-10-16T14:24:12;99877.72;;;21.99;100.00
10638;BME280;47007;49.252;8.904;2022-10-16T14:26:43;99854.38;;;21.88;100.00
10638;BME280;47007;49.252;8.904;2022-10-16T14:29:20;99851.13;;;21.85;100.00
10638;BME280;47007;49.252;8.904;2022-10-16T14:32:00;99842.88;;;21.70;100.00
10638;BME280;47007;49.252;8.904;2022-10-16T14:34:36;99856.94;;;21.72;100.00
10638;BME280;47007;49.252;8.904;2022-10-16T14:37:14;99838.41;;;21.54;100.00
10638;BME280;47007;49.252;8.904;2022-10-16T14:39:49;99862.34;;;21.72;100.00
10638;BME280;47007;49.252;8.904;2022-10-16T14:42:18;99858.03;;;21.76;100.00
10638;BME280;47007;49.252;8.904;2022-10-16T14:44:46;99853.72;;;21.75;100.00
10638;BME280;47007;49.252;8.904;2022-10-16T14:47:16;99865.84;;;21.73;100.00
10638;BME280;47007;49.252;8.904;2022-10-16T14:49:48;99862.03;;;21.69;100.00
10638;BME280;47007;49.252;8.904;2022-10-16T14:52:15;99836.50;;;21.55;100.00
10638;BME280;47007;49.252;8.904;2022-10-16T14:54:43;99821.53;;;21.37;100.00
10638;BME280;47007;49.252;8.904;2022-10-16T14:57:17;99860.63;;;21.39;100.00
10638;BME280;47007;49.252;8.904;2022-10-16T14:59:45;99859.34;;;21.20;100.00
10638;BME280;47007;49.252;8.904;2022-10-16T15:04:46;99844.19;;;20.97;100.00